Time;durP1;ratioP1;P1;durP2;ratioP2;P2;SDS_P1;SDS_P2;PMS_P1;PMS_P2;Temp;Humidity;BMP_temperature;BMP_pressure;BME280_temperature;BME280_humidity;BME280_pressure;Samples;Min_cycle;Max_cycle;Signal;HPM_P1;HPM_P2
2023/06/14 00:04:08;;;;;;;;;10.00;9.00;;;;;;;;6489607;39;8938;-61
2023/06/14 00:10:11;;;;;;;;;9.67;9.67;;;;;;;;6489419;31;8943;-60
2023/06/14 00:16:16;;;;;;;;;8.00;8.00;;;;;;;;6489264;46;8964;-60
2023/06/14 00:22:20;;;;;;;;;8.33;8.33;;;;;;;;6489296;39;9503;-58
2023/06/14 00:28:22;;;;;;;;;10.00;9.67;;;;;;;;6488694;39;8938;-60
2023/06/14 00:34:25;;;;;;;;;11.67;11.00;;;;;;;;6488050;39;8902;-61
2023/06/14 00:40:30;;;;;;;;;10.00;8.33;;;;;;;;6490212;31;8938;-61
2023/06/14 00:46:32;;;;;;;;;11.00;11.00;;;;;;;;6489083;39;9498;-60
2023/06/14 00:52:43;;;;;;;;;7.33;7.33;;;;;;;;6489050;39;9078;-61
2023/06/14 00:58:46;;;;;;;;;9.00;8.67;;;;;;;;6488206;46;8899;-60
2023/06/14 01:04:51;;;;;;;;;10.33;8.33;;;;;;;;6488413;46;8995;-59
2023/06/14 01:11:20;;;;;;;;;8.33;8.33;;;;;;;;6488562;46;8871;-61
2023/06/14 01:17:23;;;;;;;;;7.33;7.00;;;;;;;;6488370;46;8859;-59
2023/06/14 01:23:32;;;;;;;;;9.00;9.00;;;;;;;;6488618;39;8880;-60
2023/06/14 01:29:36;;;;;;;;;8.00;8.00;;;;;;;;6489514;39;9662;-59
2023/06/14 01:35:41;;;;;;;;;9.00;8.00;;;;;;;;6488118;39;8887;-60
2023/06/14 01:41:47;;;;;;;;;9.00;9.00;;;;;;;;6487339;46;8903;-61
2023/06/14 01:47:50;;;;;;;;;9.33;8.00;;;;;;;;6488089;39;8852;-60
2023/06/14 01:53:57;;;;;;;;;6.67;6.67;;;;;;;;6488522;39;9662;-60
2023/06/14 02:00:01;;;;;;;;;10.00;10.00;;;;;;;;6488540;39;8928;-59
2023/06/14 02:06:15;;;;;;;;;8.00;8.00;;;;;;;;6487633;46;8911;-60
2023/06/14 02:12:18;;;;;;;;;8.00;8.00;;;;;;;;6487574;47;9112;-60
2023/06/14 02:18:21;;;;;;;;;10.67;8.33;;;;;;;;6487254;47;8887;-60
2023/06/14 02:24:23;;;;;;;;;7.67;7.67;;;;;;;;6488496;39;8898;-61
2023/06/14 02:30:28;;;;;;;;;9.00;7.67;;;;;;;;6487609;39;8855;-60
2023/06/14 02:36:31;;;;;;;;;7.67;7.67;;;;;;;;6486594;39;8883;-60
2023/06/14 02:42:35;;;;;;;;;7.67;7.67;;;;;;;;6487960;39;8904;-60
2023/06/14 02:48:38;;;;;;;;;10.00;10.00;;;;;;;;6486652;39;8918;-60
2023/06/14 02:54:44;;;;;;;;;7.67;7.67;;;;;;;;6488114;39;9499;-60
2023/06/14 03:00:48;;;;;;;;;6.67;5.00;;;;;;;;6486660;39;9022;-60
2023/06/14 03:06:50;;;;;;;;;9.00;9.00;;;;;;;;6486811;39;8951;-60
2023/06/14 03:12:55;;;;;;;;;7.67;7.67;;;;;;;;6485367;39;8910;-60
2023/06/14 03:19:01;;;;;;;;;10.67;9.67;;;;;;;;6485615;39;8880;-59
2023/06/14 03:25:07;;;;;;;;;11.00;10.00;;;;;;;;6486454;46;8855;-59
2023/06/14 03:31:13;;;;;;;;;8.33;8.33;;;;;;;;6487907;36;8955;-60
2023/06/14 03:37:18;;;;;;;;;9.33;9.00;;;;;;;;6488567;39;8882;-60
2023/06/14 03:43:23;;;;;;;;;11.00;9.33;;;;;;;;6487437;39;8855;-60
2023/06/14 03:49:28;;;;;;;;;11.00;11.00;;;;;;;;6487918;46;8921;-61
2023/06/14 03:55:31;;;;;;;;;10.00;9.00;;;;;;;;6486614;31;8894;-59
2023/06/14 04:08:01;;;;;;;;;9.00;9.00;;;;;;;;6489401;46;8896;-59
2023/06/14 04:25:32;;;;;;;;;9.00;8.67;;;;;;;;6493510;31;9047;-61
2023/06/14 04:31:39;;;;;;;;;9.00;9.00;;;;;;;;6490052;46;8912;-60
2023/06/14 04:37:45;;;;;;;;;8.67;7.00;;;;;;;;6491799;39;9017;-61
2023/06/14 04:43:53;;;;;;;;;11.00;9.33;;;;;;;;6489449;39;9059;-59
2023/06/14 04:49:57;;;;;;;;;12.67;10.67;;;;;;;;6489716;46;8923;-61
2023/06/14 04:56:00;;;;;;;;;11.00;11.00;;;;;;;;6490649;39;9723;-61
2023/06/14 05:02:06;;;;;;;;;10.00;9.00;;;;;;;;6488575;46;8924;-62
2023/06/14 05:08:10;;;;;;;;;15.00;13.33;;;;;;;;6491139;39;8850;-60
2023/06/14 05:14:12;;;;;;;;;14.00;13.67;;;;;;;;6488726;39;8955;-61
2023/06/14 05:20:18;;;;;;;;;14.33;12.67;;;;;;;;6489064;39;9035;-60
2023/06/14 05:26:25;;;;;;;;;10.33;10.33;;;;;;;;6490586;46;9010;-60
2023/06/14 05:32:31;;;;;;;;;8.00;8.00;;;;;;;;6490328;31;8897;-61
2023/06/14 05:38:34;;;;;;;;;10.67;10.67;;;;;;;;6489220;39;8902;-61
2023/06/14 05:44:36;;;;;;;;;15.00;12.00;;;;;;;;6490190;31;8881;-59
2023/06/14 05:50:40;;;;;;;;;10.00;7.67;;;;;;;;6488898;39;8927;-60
2023/06/14 05:56:43;;;;;;;;;13.00;13.00;;;;;;;;6490413;39;9044;-61
2023/06/14 06:02:48;;;;;;;;;11.50;10.75;;;;;;;;6488363;46;8928;-63
2023/06/14 06:08:52;;;;;;;;;12.75;10.75;;;;;;;;6490492;47;8829;-61
2023/06/14 06:14:56;;;;;;;;;14.50;12.75;;;;;;;;6490898;31;8892;-63
2023/06/14 06:20:59;;;;;;;;;12.50;12.50;;;;;;;;6310181;39;10000573;-61
2023/06/14 06:27:10;;;;;;;;;21.75;21.75;;;;;;;;6489948;31;8853;-60
2023/06/14 06:33:15;;;;;;;;;19.75;19.00;;;;;;;;6489588;46;9015;-61
2023/06/14 06:39:19;;;;;;;;;16.75;14.75;;;;;;;;6490595;39;8808;-61
2023/06/14 06:45:23;;;;;;;;;13.75;13.75;;;;;;;;6489642;39;9577;-63
2023/06/14 06:51:26;;;;;;;;;18.75;18.00;;;;;;;;6490082;36;8871;-62
2023/06/14 06:57:30;;;;;;;;;22.50;21.00;;;;;;;;6490698;31;9018;-61
2023/06/14 07:03:33;;;;;;;;;16.75;15.50;;;;;;;;6490706;39;8940;-61
2023/06/14 07:09:37;;;;;;;;;26.75;23.25;;;;;;;;6489948;39;9525;-62
2023/06/14 07:15:39;;;;;;;;;18.75;17.75;;;;;;;;6490005;39;8870;-62
2023/06/14 07:21:42;;;;;;;;;13.25;13.25;;;;;;;;6489772;39;9614;-61
2023/06/14 07:27:45;;;;;;;;;17.00;17.00;;;;;;;;6492010;39;9253;-63
2023/06/14 07:33:50;;;;;;;;;21.50;17.50;;;;;;;;6490992;39;8921;-62
2023/06/14 07:39:56;;;;;;;;;20.00;20.00;;;;;;;;6490805;46;8816;-63
2023/06/14 07:45:59;;;;;;;;;17.00;15.25;;;;;;;;6490284;39;8878;-62
2023/06/14 07:52:11;;;;;;;;;13.25;13.25;;;;;;;;6491148;39;9058;-61
2023/06/14 07:58:13;;;;;;;;;20.00;18.25;;;;;;;;6490839;46;8889;-61
2023/06/14 08:04:17;;;;;;;;;15.00;15.00;;;;;;;;6489977;31;8933;-62
2023/06/14 08:10:22;;;;;;;;;13.50;12.25;;;;;;;;6491387;36;8827;-63
2023/06/14 08:16:27;;;;;;;;;14.50;13.50;;;;;;;;6490700;39;8945;-64
2023/06/14 08:22:33;;;;;;;;;22.00;21.00;;;;;;;;6488679;39;8918;-64
2023/06/14 08:28:37;;;;;;;;;19.25;16.00;;;;;;;;6490391;31;9097;-61
2023/06/14 08:34:42;;;;;;;;;26.50;26.00;;;;;;;;6491109;39;8907;-62
2023/06/14 08:41:06;;;;;;;;;21.75;21.75;;;;;;;;6490154;46;8922;-62
2023/06/14 08:47:11;;;;;;;;;14.50;14.50;;;;;;;;6488901;46;8906;-64
2023/06/14 08:53:20;;;;;;;;;21.25;19.00;;;;;;;;6489565;46;8929;-62
2023/06/14 08:59:23;;;;;;;;;19.00;19.00;;;;;;;;6490327;39;8887;-61
2023/06/14 09:05:26;;;;;;;;;23.50;20.25;;;;;;;;6488747;39;9511;-61
2023/06/14 09:11:30;;;;;;;;;18.25;15.25;;;;;;;;6488824;39;8835;-63
2023/06/14 09:17:35;;;;;;;;;19.75;19.75;;;;;;;;6491126;31;9037;-63
2023/06/14 09:23:41;;;;;;;;;15.00;13.75;;;;;;;;6489699;39;8928;-65
2023/06/14 09:29:44;;;;;;;;;15.50;14.25;;;;;;;;6487402;46;8862;-64
2023/06/14 09:35:55;;;;;;;;;16.00;16.00;;;;;;;;6488240;39;8949;-61
2023/06/14 09:41:58;;;;;;;;;15.00;12.50;;;;;;;;6488519;39;8851;-64
2023/06/14 09:48:01;;;;;;;;;12.75;12.75;;;;;;;;6488258;46;8883;-61
2023/06/14 09:54:16;;;;;;;;;10.75;10.75;;;;;;;;6488595;39;9521;-61
2023/06/14 10:00:21;;;;;;;;;14.00;12.00;;;;;;;;6489423;39;8895;-63
2023/06/14 10:06:29;;;;;;;;;14.00;14.00;;;;;;;;6487806;39;9577;-62
2023/06/14 10:12:34;;;;;;;;;13.50;12.50;;;;;;;;6487960;47;8909;-61
2023/06/14 10:18:54;;;;;;;;;14.75;14.75;;;;;;;;6488432;39;9567;-61
2023/06/14 10:24:56;;;;;;;;;13.50;13.50;;;;;;;;6488074;39;9408;-62
2023/06/14 10:31:11;;;;;;;;;13.25;12.50;;;;;;;;6487664;39;8859;-61
2023/06/14 10:37:16;;;;;;;;;13.50;13.25;;;;;;;;6489342;31;9037;-62
2023/06/14 10:43:25;;;;;;;;;13.25;13.25;;;;;;;;6489541;39;8921;-62
2023/06/14 10:49:44;;;;;;;;;12.00;10.25;;;;;;;;6489054;39;9438;-62
2023/06/14 10:55:48;;;;;;;;;16.50;16.50;;;;;;;;6489304;39;9575;-62
2023/06/14 11:02:06;;;;;;;;;14.75;14.75;;;;;;;;6488610;39;8953;-63
2023/06/14 11:08:27;;;;;;;;;14.25;12.50;;;;;;;;6489673;31;9016;-60
2023/06/14 11:14:31;;;;;;;;;19.25;15.75;;;;;;;;6489038;39;9035;-60
2023/06/14 11:20:36;;;;;;;;;13.50;13.50;;;;;;;;6488683;31;8918;-63
2023/06/14 11:26:40;;;;;;;;;15.00;15.00;;;;;;;;6488494;39;9026;-61
2023/06/14 11:32:46;;;;;;;;;15.25;12.75;;;;;;;;6488350;46;8934;-61
2023/06/14 11:38:49;;;;;;;;;15.75;15.75;;;;;;;;6488089;39;8914;-62
2023/06/14 11:44:51;;;;;;;;;12.75;11.00;;;;;;;;6488250;39;8907;-63
2023/06/14 11:51:05;;;;;;;;;13.50;12.50;;;;;;;;6489141;31;8975;-62
2023/06/14 11:57:07;;;;;;;;;16.00;13.50;;;;;;;;6488300;46;8901;-62
2023/06/14 12:03:12;;;;;;;;;14.50;14.50;;;;;;;;6488288;46;9003;-61
2023/06/14 12:09:18;;;;;;;;;14.00;14.00;;;;;;;;6488200;46;8957;-63
2023/06/14 12:15:20;;;;;;;;;13.75;13.75;;;;;;;;6487551;46;8995;-61
2023/06/14 12:21:23;;;;;;;;;16.00;16.00;;;;;;;;6488351;39;8994;-61
2023/06/14 12:27:28;;;;;;;;;19.25;17.75;;;;;;;;6488034;39;8913;-61
2023/06/14 12:33:31;;;;;;;;;13.50;13.50;;;;;;;;6488298;39;8918;-62
2023/06/14 12:39:34;;;;;;;;;19.75;17.25;;;;;;;;6488162;39;8873;-62
2023/06/14 12:45:36;;;;;;;;;15.50;12.75;;;;;;;;6487730;46;8894;-63
2023/06/14 12:51:40;;;;;;;;;15.50;14.50;;;;;;;;6487474;46;8876;-62
2023/06/14 12:57:42;;;;;;;;;15.25;15.25;;;;;;;;6487093;39;8906;-63
2023/06/14 13:03:47;;;;;;;;;13.75;12.75;;;;;;;;6479239;46;8958;-63
2023/06/14 13:09:51;;;;;;;;;16.00;14.75;;;;;;;;6487224;46;8934;-62
2023/06/14 13:15:53;;;;;;;;;16.75;16.00;;;;;;;;6486793;39;8913;-61
2023/06/14 13:21:57;;;;;;;;;13.75;12.50;;;;;;;;6487551;39;8922;-62
2023/06/14 13:28:00;;;;;;;;;17.25;14.75;;;;;;;;6486492;31;9087;-62
2023/06/14 13:34:06;;;;;;;;;16.50;16.00;;;;;;;;6488238;46;8949;-63
2023/06/14 13:40:10;;;;;;;;;13.50;13.50;;;;;;;;6487890;39;8915;-62
2023/06/14 13:46:13;;;;;;;;;16.75;16.75;;;;;;;;6487479;46;8931;-62
2023/06/14 13:52:15;;;;;;;;;14.50;14.00;;;;;;;;6487244;46;8940;-61
2023/06/14 13:58:19;;;;;;;;;14.75;14.00;;;;;;;;6486542;46;8933;-62
2023/06/14 14:04:22;;;;;;;;;15.00;14.50;;;;;;;;6488479;39;8891;-61
2023/06/14 14:10:26;;;;;;;;;11.00;10.50;;;;;;;;6487647;47;8839;-61
2023/06/14 14:16:30;;;;;;;;;15.00;14.00;;;;;;;;6488005;39;8932;-63
2023/06/14 14:22:32;;;;;;;;;18.50;15.00;;;;;;;;6488674;39;9966;-61
2023/06/14 14:28:38;;;;;;;;;16.75;16.00;;;;;;;;6487344;39;8896;-62
2023/06/14 14:34:43;;;;;;;;;14.75;14.50;;;;;;;;6488224;31;8874;-61
2023/06/14 14:40:45;;;;;;;;;14.00;13.50;;;;;;;;6487735;39;8985;-64
2023/06/14 14:46:47;;;;;;;;;16.33;16.33;;;;;;;;6486874;39;8886;-61
2023/06/14 14:52:51;;;;;;;;;16.00;15.25;;;;;;;;6487603;47;9029;-61
2023/06/14 14:58:53;;;;;;;;;15.75;14.75;;;;;;;;6487330;31;9166;-61
2023/06/14 15:05:00;;;;;;;;;19.50;15.75;;;;;;;;6487449;39;8857;-61
2023/06/14 15:11:02;;;;;;;;;17.25;15.75;;;;;;;;6487842;39;8950;-61
2023/06/14 15:17:06;;;;;;;;;16.00;15.75;;;;;;;;6487021;39;8927;-62
2023/06/14 15:23:09;;;;;;;;;16.25;14.50;;;;;;;;6490834;39;10310;-62
2023/06/14 15:29:13;;;;;;;;;14.50;14.50;;;;;;;;6488862;39;8915;-63
2023/06/14 15:35:20;;;;;;;;;20.75;17.00;;;;;;;;6489353;46;8929;-61
2023/06/14 15:41:23;;;;;;;;;16.75;15.25;;;;;;;;6489366;39;8896;-61
2023/06/14 15:47:25;;;;;;;;;17.75;17.75;;;;;;;;6489240;39;8859;-61
2023/06/14 15:53:29;;;;;;;;;18.00;17.50;;;;;;;;6489436;46;8893;-63
2023/06/14 15:59:34;;;;;;;;;21.50;20.50;;;;;;;;6489384;39;8902;-61
2023/06/14 16:05:37;;;;;;;;;28.50;27.50;;;;;;;;6489808;39;8905;-61
2023/06/14 16:11:41;;;;;;;;;25.25;23.25;;;;;;;;6488656;36;8874;-61
2023/06/14 16:17:43;;;;;;;;;20.25;19.25;;;;;;;;6488716;39;8873;-61
2023/06/14 16:23:49;;;;;;;;;13.75;13.75;;;;;;;;6489469;39;8978;-62
2023/06/14 16:29:53;;;;;;;;;16.25;14.50;;;;;;;;6488288;39;9528;-60
2023/06/14 16:35:55;;;;;;;;;20.00;18.25;;;;;;;;6489822;31;8877;-61
2023/06/14 16:41:58;;;;;;;;;25.75;25.00;;;;;;;;6489473;39;8854;-62
2023/06/14 16:48:00;;;;;;;;;17.00;17.00;;;;;;;;6489402;39;8925;-61
2023/06/14 16:54:03;;;;;;;;;22.75;21.75;;;;;;;;6488481;39;9044;-60
2023/06/14 17:00:10;;;;;;;;;20.50;19.25;;;;;;;;6488380;46;8943;-60
2023/06/14 17:06:18;;;;;;;;;24.00;23.67;;;;;;;;6489593;39;8900;-60
2023/06/14 17:12:21;;;;;;;;;20.75;18.75;;;;;;;;6489938;39;9473;-61
2023/06/14 17:18:26;;;;;;;;;21.25;17.00;;;;;;;;6489521;39;8865;-60
2023/06/14 17:24:30;;;;;;;;;26.00;23.00;;;;;;;;6489310;46;8960;-61
2023/06/14 17:30:38;;;;;;;;;26.75;24.50;;;;;;;;6488649;39;8959;-60
2023/06/14 17:36:40;;;;;;;;;25.00;23.75;;;;;;;;6489797;39;8932;-61
2023/06/14 17:42:45;;;;;;;;;25.75;23.25;;;;;;;;6488045;39;9516;-61
2023/06/14 17:48:47;;;;;;;;;25.75;23.75;;;;;;;;6488464;46;8920;-61
2023/06/14 17:54:53;;;;;;;;;20.75;20.50;;;;;;;;6488189;39;8960;-61
2023/06/14 18:00:56;;;;;;;;;24.50;22.00;;;;;;;;6488105;46;8928;-61
2023/06/14 18:07:00;;;;;;;;;26.75;26.00;;;;;;;;6487836;46;8883;-62
2023/06/14 18:13:04;;;;;;;;;23.00;21.75;;;;;;;;6488244;39;8913;-61
2023/06/14 18:19:09;;;;;;;;;25.25;22.75;;;;;;;;6489302;39;8877;-60
2023/06/14 18:25:15;;;;;;;;;29.50;25.25;;;;;;;;6488534;39;8975;-63
2023/06/14 18:31:18;;;;;;;;;21.00;19.25;;;;;;;;6489062;32;9610;-62
2023/06/14 18:37:22;;;;;;;;;25.50;25.50;;;;;;;;6488417;31;9642;-61
2023/06/14 18:43:24;;;;;;;;;27.25;26.00;;;;;;;;6487649;46;8893;-61
2023/06/14 18:49:28;;;;;;;;;31.25;30.00;;;;;;;;6488131;39;8877;-60
2023/06/14 18:55:31;;;;;;;;;27.00;24.75;;;;;;;;6490066;31;8957;-59
2023/06/14 19:01:33;;;;;;;;;27.75;26.00;;;;;;;;6489764;46;8877;-60
2023/06/14 19:07:35;;;;;;;;;21.00;19.50;;;;;;;;6490797;39;8948;-61
2023/06/14 19:13:40;;;;;;;;;23.25;23.25;;;;;;;;6490090;39;8956;-60
2023/06/14 19:19:46;;;;;;;;;22.25;19.50;;;;;;;;6490916;36;8900;-61
2023/06/14 19:25:48;;;;;;;;;20.25;19.25;;;;;;;;6489689;39;8932;-60
2023/06/14 19:31:53;;;;;;;;;19.25;16.50;;;;;;;;6488706;46;8921;-61
2023/06/14 19:37:55;;;;;;;;;16.50;14.75;;;;;;;;6534748;36;8967;-60
2023/06/14 19:43:59;;;;;;;;;18.00;17.25;;;;;;;;6489574;39;8865;-61
2023/06/14 19:50:02;;;;;;;;;16.75;16.75;;;;;;;;6507113;36;8900;-61
2023/06/14 19:56:06;;;;;;;;;18.00;14.25;;;;;;;;6489064;39;8971;-62
2023/06/14 20:02:09;;;;;;;;;17.50;15.50;;;;;;;;6489057;39;8883;-59
2023/06/14 20:08:20;;;;;;;;;17.25;16.25;;;;;;;;6489220;46;8919;-61
2023/06/14 20:14:22;;;;;;;;;18.50;17.75;;;;;;;;6489422;39;8895;-61
2023/06/14 20:20:25;;;;;;;;;16.75;16.75;;;;;;;;6489532;39;8891;-61
2023/06/14 20:26:28;;;;;;;;;18.00;17.50;;;;;;;;6489587;39;9066;-60
2023/06/14 20:32:31;;;;;;;;;18.75;17.75;;;;;;;;6489457;39;8931;-60
2023/06/14 20:38:36;;;;;;;;;21.50;18.50;;;;;;;;6490367;39;8970;-63
2023/06/14 20:44:40;;;;;;;;;19.25;19.00;;;;;;;;6488637;36;8882;-61
2023/06/14 20:50:44;;;;;;;;;22.33;22.33;;;;;;;;1184810;36;10001018;-60
2023/06/14 20:56:49;;;;;;;;;25.50;24.25;;;;;;;;6488165;46;8937;-59
2023/06/14 21:02:51;;;;;;;;;31.00;26.33;;;;;;;;6488346;46;8912;-60
2023/06/14 21:08:56;;;;;;;;;26.00;25.33;;;;;;;;6488010;46;8849;-62
2023/06/14 21:15:00;;;;;;;;;26.33;26.33;;;;;;;;6488687;31;8908;-61
2023/06/14 21:21:03;;;;;;;;;29.00;27.00;;;;;;;;6489205;39;8993;-60
2023/06/14 21:27:06;;;;;;;;;28.33;23.67;;;;;;;;6488387;46;9003;-60
2023/06/14 21:33:09;;;;;;;;;28.67;27.00;;;;;;;;6488607;39;8917;-60
2023/06/14 21:39:14;;;;;;;;;26.67;25.33;;;;;;;;6488635;39;8864;-59
2023/06/14 21:45:24;;;;;;;;;24.00;22.67;;;;;;;;6488308;39;8967;-60
2023/06/14 21:51:28;;;;;;;;;24.00;22.67;;;;;;;;6487230;46;8923;-62
2023/06/14 21:57:31;;;;;;;;;23.75;23.75;;;;;;;;6487502;39;8988;-62
2023/06/14 22:03:39;;;;;;;;;24.00;22.50;;;;;;;;6488418;39;8946;-61
2023/06/14 22:09:43;;;;;;;;;26.33;24.33;;;;;;;;6487840;39;8900;-61
2023/06/14 22:15:46;;;;;;;;;22.33;20.33;;;;;;;;6487705;39;8995;-60
2023/06/14 22:21:50;;;;;;;;;23.33;22.00;;;;;;;;6488960;31;8924;-62
2023/06/14 22:27:56;;;;;;;;;26.67;26.33;;;;;;;;6489309;39;9552;-60
2023/06/14 22:33:58;;;;;;;;;19.00;19.00;;;;;;;;6489445;46;8909;-62
2023/06/14 22:40:09;;;;;;;;;22.00;21.00;;;;;;;;6490416;39;9524;-62
2023/06/14 22:46:19;;;;;;;;;19.33;19.33;;;;;;;;6489902;31;9533;-61
2023/06/14 22:52:29;;;;;;;;;16.67;16.67;;;;;;;;6489856;39;9575;-60
2023/06/14 22:58:39;;;;;;;;;18.33;18.33;;;;;;;;6488821;46;8898;-60
2023/06/14 23:04:46;;;;;;;;;18.33;18.33;;;;;;;;6489936;46;8904;-60
2023/06/14 23:10:51;;;;;;;;;23.67;21.33;;;;;;;;6489306;46;8885;-61
2023/06/14 23:16:54;;;;;;;;;21.67;21.67;;;;;;;;6490202;31;8869;-61
2023/06/14 23:22:58;;;;;;;;;20.33;18.33;;;;;;;;6488492;46;9004;-61
2023/06/14 23:29:02;;;;;;;;;24.33;21.67;;;;;;;;6489749;46;9002;-61
2023/06/14 23:35:10;;;;;;;;;23.67;22.33;;;;;;;;6489953;46;8915;-60
2023/06/14 23:41:15;;;;;;;;;20.33;20.00;;;;;;;;6489916;31;8852;-61
2023/06/14 23:47:21;;;;;;;;;20.33;18.67;;;;;;;;6489310;46;8883;-61
2023/06/14 23:53:27;;;;;;;;;21.33;21.33;;;;;;;;6490321;39;8955;-61
2023/06/14 23:59:32;;;;;;;;;22.00;22.00;;;;;;;;6489437;31;8953;-58
